Time;durP1;ratioP1;P1;durP2;ratioP2;P2;SDS_P1;SDS_P2;PMS_P1;PMS_P2;Temp;Humidity;BMP_temperature;BMP_pressure;BME280_temperature;BME280_humidity;BME280_pressure;Samples;Min_cycle;Max_cycle;Signal;HPM_P1;HPM_P2
2021/12/25 00:00:12;;;;;;;2.28;0.80;;;;;;;-4.20;69.87;99314.63;5035564;28;20061;-56
2021/12/25 00:02:38;;;;;;;2.67;1.00;;;;;;;-4.27;70.19;99315.34;5036094;28;20438;-56
2021/12/25 00:05:04;;;;;;;2.42;1.00;;;;;;;-4.32;70.35;99325.50;5038373;28;20123;-59
2021/12/25 00:07:30;;;;;;;1.75;0.95;;;;;;;-4.37;70.62;99337.38;5036294;28;20033;-56
2021/12/25 00:09:57;;;;;;;5.13;0.90;;;;;;;-4.34;70.60;99339.16;5036320;28;20479;-57
2021/12/25 00:12:23;;;;;;;3.95;1.02;;;;;;;-4.44;70.84;99347.47;5045895;28;20040;-56
2021/12/25 00:14:49;;;;;;;3.35;1.08;;;;;;;-4.50;70.90;99356.75;5055904;28;20033;-55
2021/12/25 00:17:14;;;;;;;2.65;1.40;;;;;;;-4.52;71.15;99353.28;5056068;28;20088;-56
2021/12/25 00:19:39;;;;;;;3.92;1.23;;;;;;;-4.48;71.01;99355.06;5037116;28;20036;-58
2021/12/25 00:22:05;;;;;;;2.92;0.95;;;;;;;-4.57;71.21;99366.84;5036079;28;20033;-60
2021/12/25 00:24:30;;;;;;;3.50;1.67;;;;;;;-4.57;71.10;99359.16;5035882;28;20045;-56
2021/12/25 00:27:04;;;;;;;3.35;1.00;;;;;;;-4.58;71.39;99378.78;5035281;28;20033;-58
2021/12/25 00:29:53;;;;;;;2.58;0.80;;;;;;;-4.72;71.06;99369.91;5045367;28;20159;-57
2021/12/25 00:34:44;;;;;;;2.03;1.00;;;;;;;-4.76;71.82;99386.03;5035545;28;20041;-57
2021/12/25 00:37:10;;;;;;;2.55;0.73;;;;;;;-4.75;71.82;99390.34;5035370;28;20037;-56
2021/12/25 00:39:36;;;;;;;2.65;1.02;;;;;;;-4.80;71.86;99397.91;5035604;28;20452;-57
2021/12/25 00:42:03;;;;;;;3.10;0.90;;;;;;;-4.82;72.10;99396.16;5035490;28;20061;-57
2021/12/25 00:44:29;;;;;;;2.13;0.80;;;;;;;-4.81;72.17;99397.91;5035985;28;20042;-58
2021/12/25 00:46:54;;;;;;;3.40;1.58;;;;;;;-4.84;72.55;99396.13;5049334;28;20111;-56
2021/12/25 00:49:20;;;;;;;3.20;1.23;;;;;;;-4.89;72.60;99401.97;5035908;28;20045;-57
2021/12/25 00:51:45;;;;;;;3.63;1.38;;;;;;;-4.88;72.63;99402.00;5043088;28;20029;-56
2021/12/25 00:54:11;;;;;;;2.20;0.82;;;;;;;-4.95;72.66;99405.22;5054733;28;20365;-56
2021/12/25 00:56:37;;;;;;;2.80;0.90;;;;;;;-5.01;72.98;99399.97;5055205;28;20033;-56
2021/12/25 00:59:02;;;;;;;2.22;0.90;;;;;;;-5.05;73.35;99400.72;5055521;28;20452;-57
2021/12/25 01:01:28;;;;;;;2.53;1.00;;;;;;;-5.08;73.62;99416.00;5042500;28;20037;-56
2021/12/25 01:03:53;;;;;;;1.65;0.70;;;;;;;-5.15;73.81;99414.09;5035233;28;20037;-55
2021/12/25 01:06:19;;;;;;;2.30;0.65;;;;;;;-5.11;73.89;99415.91;5033765;28;20090;-55
2021/12/25 01:08:44;;;;;;;14.98;6.32;;;;;;;-5.14;73.96;99437.22;5034340;28;20042;-55
2021/12/25 01:11:10;;;;;;;2.97;0.82;;;;;;;-5.15;74.11;99442.28;5034694;28;20037;-55
2021/12/25 01:13:41;;;;;;;1.52;0.60;;;;;;;-5.10;73.89;99435.63;5035111;28;20199;-58
2021/12/25 01:16:22;;;;;;;2.17;0.60;;;;;;;-5.17;74.16;99447.38;5052999;28;20041;-56
2021/12/25 01:37:25;;;;;;;2.17;0.73;;;;;;;-5.24;74.62;99471.94;5034771;28;20385;-54
2021/12/25 01:40:07;;;;;;;1.52;0.55;;;;;;;-5.22;74.53;99477.13;5034791;28;20029;-53
2021/12/25 01:48:00;;;;;;;1.15;0.60;;;;;;;-5.21;74.69;99492.53;5052264;28;20048;-56
2021/12/25 01:50:27;;;;;;;2.40;0.65;;;;;;;-5.18;74.65;99485.78;5033965;28;20029;-56
2021/12/25 01:52:55;;;;;;;2.15;0.55;;;;;;;-5.15;74.37;99490.94;5034370;28;20029;-57
2021/12/25 01:55:28;;;;;;;1.58;0.60;;;;;;;-5.23;74.80;99498.44;5037589;28;20033;-56
2021/12/25 01:57:55;;;;;;;2.97;0.60;;;;;;;-5.22;74.56;99495.94;5034149;28;20036;-57
2021/12/25 02:00:38;;;;;;;1.80;0.60;;;;;;;-5.22;74.50;99506.16;5034479;28;20116;-57
2021/12/25 02:03:06;;;;;;;3.70;0.80;;;;;;;-5.29;74.75;99493.16;5033694;28;20043;-57
2021/12/25 02:05:31;;;;;;;3.70;0.65;;;;;;;-5.30;74.98;99505.09;5035248;28;20049;-55
2021/12/25 02:07:57;;;;;;;2.63;0.93;;;;;;;-5.40;75.28;99515.03;5035286;28;20078;-56
2021/12/25 02:10:23;;;;;;;3.80;1.10;;;;;;;-5.44;75.39;99508.94;5036852;28;20045;-57
2021/12/25 02:12:48;;;;;;;3.05;1.08;;;;;;;-5.45;75.39;99514.91;5034054;28;20067;-55
2021/12/25 02:15:18;;;;;;;2.72;0.88;;;;;;;-5.40;75.17;99505.66;5042934;28;20060;-55
2021/12/25 02:18:09;;;;;;;1.83;0.65;;;;;;;-5.34;74.98;99518.63;5053386;28;20434;-57
2021/12/25 02:20:45;;;;;;;2.60;0.90;;;;;;;-5.49;75.61;99519.06;5053785;28;20087;-55
2021/12/25 02:23:19;;;;;;;2.58;0.60;;;;;;;-5.50;75.59;99513.91;5032315;28;20073;-56
2021/12/25 02:25:46;;;;;;;2.30;0.73;;;;;;;-5.58;76.04;99533.31;5034017;28;20053;-56
2021/12/25 02:28:14;;;;;;;3.03;0.88;;;;;;;-5.54;75.64;99525.75;5041270;28;20112;-57
2021/12/25 02:30:41;;;;;;;2.03;0.65;;;;;;;-5.60;76.14;99527.25;5053696;28;20491;-56
2021/12/25 02:33:07;;;;;;;3.42;0.77;;;;;;;-5.57;75.89;99538.44;5053552;28;20029;-57
2021/12/25 02:35:33;;;;;;;2.10;0.70;;;;;;;-5.61;76.14;99526.38;5034889;28;20033;-54
2021/12/25 02:37:58;;;;;;;3.42;1.17;;;;;;;-5.63;76.34;99532.28;5043573;28;20057;-56
2021/12/25 02:40:24;;;;;;;1.75;0.90;;;;;;;-5.62;76.67;99534.91;5047433;28;20108;-58
2021/12/25 02:42:49;;;;;;;4.43;1.10;;;;;;;-5.63;76.61;99527.16;5033123;28;20048;-55
2021/12/25 02:45:21;;;;;;;2.67;1.10;;;;;;;-5.67;76.84;99538.13;5049120;28;20029;-56
2021/12/25 02:47:49;;;;;;;3.03;1.27;;;;;;;-5.71;77.04;99537.16;5050987;28;20507;-56
2021/12/25 02:50:30;;;;;;;3.08;0.77;;;;;;;-5.57;76.50;99543.56;5046198;28;20400;-56
2021/12/25 02:52:57;;;;;;;3.15;0.90;;;;;;;-5.57;76.63;99552.94;5041684;28;20500;-56
2021/12/25 02:55:24;;;;;;;2.85;0.82;;;;;;;-5.62;76.97;99551.97;5031762;28;20084;-54
2021/12/25 02:57:51;;;;;;;3.95;1.30;;;;;;;-5.65;76.85;99541.63;5044086;28;20120;-56
2021/12/25 03:00:26;;;;;;;4.55;1.42;;;;;;;-5.60;76.69;99542.63;5042908;28;20033;-55
2021/12/25 03:02:51;;;;;;;4.00;1.45;;;;;;;-5.62;76.64;99549.41;5031689;28;20030;-56
2021/12/25 03:05:17;;;;;;;6.45;1.92;;;;;;;-5.61;76.80;99559.66;5034334;28;20046;-56
2021/12/25 03:07:43;;;;;;;4.38;1.60;;;;;;;-5.58;76.81;99561.47;5033229;28;20076;-55
2021/12/25 03:10:10;;;;;;;5.07;1.73;;;;;;;-5.58;76.76;99566.59;5033086;28;20041;-55
2021/12/25 03:12:38;;;;;;;4.53;1.33;;;;;;;-5.63;77.02;99568.97;5047153;28;20377;-56
2021/12/25 03:15:12;;;;;;;3.20;1.20;;;;;;;-5.53;76.53;99565.00;5040724;28;20091;-57
2021/12/25 03:17:37;;;;;;;3.97;0.98;;;;;;;-5.59;76.89;99570.81;5033354;28;20108;-54
2021/12/25 03:20:05;;;;;;;2.30;1.00;;;;;;;-5.55;76.82;99557.28;5033068;28;20495;-56
2021/12/25 03:22:31;;;;;;;3.65;1.02;;;;;;;-5.58;77.11;99561.47;5032391;28;20521;-55
2021/12/25 03:24:56;;;;;;;2.65;0.82;;;;;;;-5.62;76.71;99564.75;5048318;28;20040;-57
2021/12/25 03:27:22;;;;;;;2.47;0.90;;;;;;;-5.56;76.72;99570.91;5044651;28;20103;-56
2021/12/25 03:29:47;;;;;;;2.83;1.02;;;;;;;-5.56;76.81;99565.78;5034122;28;20034;-58
2021/12/25 03:32:13;;;;;;;2.15;0.70;;;;;;;-5.60;76.99;99574.19;5033101;28;20037;-57
2021/12/25 03:34:38;;;;;;;3.95;0.80;;;;;;;-5.63;77.05;99579.22;5046878;28;20499;-57
2021/12/25 03:37:04;;;;;;;2.22;0.80;;;;;;;-5.61;77.09;99572.47;5052971;28;20039;-57
2021/12/25 03:39:30;;;;;;;2.60;0.90;;;;;;;-5.54;76.56;99583.78;5055015;28;20057;-55
2021/12/25 03:41:58;;;;;;;2.75;1.00;;;;;;;-5.67;77.09;99577.38;5056633;28;20040;-57
2021/12/25 03:44:24;;;;;;;3.42;0.90;;;;;;;-5.67;77.10;99579.09;5039220;28;20048;-57
2021/12/25 03:46:51;;;;;;;4.68;1.20;;;;;;;-5.66;77.27;99593.59;5036182;28;20068;-56
2021/12/25 03:53:06;;;;;;;3.72;1.00;;;;;;;-5.72;77.42;99589.19;5036565;28;20095;-56
2021/12/25 03:57:57;;;;;;;2.55;0.70;;;;;;;-5.76;77.33;99595.03;5040462;28;19928;-55
2021/12/25 04:00:29;;;;;;;3.40;0.80;;;;;;;-5.67;77.08;99604.66;5044151;28;20045;-56
2021/12/25 04:02:58;;;;;;;2.22;1.00;;;;;;;-5.60;76.95;99589.56;5036546;28;20061;-57
2021/12/25 04:05:28;;;;;;;3.22;0.90;;;;;;;-5.55;76.85;99598.22;5035911;28;20121;-56
2021/12/25 04:10:33;;;;;;;4.70;1.40;;;;;;;-5.59;76.54;99616.88;5039725;28;20044;-56
2021/12/25 04:12:59;;;;;;;5.40;1.20;;;;;;;-5.50;76.58;99616.31;5036514;28;20128;-55
2021/12/25 04:15:24;;;;;;;2.05;0.80;;;;;;;-5.46;76.25;99625.81;5036273;28;20079;-57
2021/12/25 04:17:50;;;;;;;1.40;0.70;;;;;;;-5.56;76.46;99628.91;5035462;28;20120;-57
2021/12/25 04:20:17;;;;;;;3.65;0.82;;;;;;;-5.51;76.30;99622.22;5038096;28;20120;-57
2021/12/25 04:22:47;;;;;;;3.90;0.93;;;;;;;-5.49;76.02;99633.41;5035660;28;20091;-55
2021/12/25 04:25:18;;;;;;;2.45;0.80;;;;;;;-5.43;75.95;99628.44;5036310;28;20045;-56
2021/12/25 04:27:43;;;;;;;2.15;0.70;;;;;;;-5.48;76.04;99627.47;5036103;28;20041;-54
2021/12/25 04:30:23;;;;;;;4.00;0.90;;;;;;;-5.49;75.98;99638.53;5034361;28;20053;-55
2021/12/25 04:33:27;;;;;;;1.92;0.68;;;;;;;-5.51;76.18;99640.16;5037985;28;20428;-56
2021/12/25 05:03:43;;;;;;;2.05;0.90;;;;;;;-5.89;77.15;99659.44;5035291;28;20044;-56
2021/12/25 05:05:46;;;;;;;3.33;0.70;;;;;;;-5.89;77.19;99651.75;5036805;28;20061;-57
2021/12/25 05:08:12;;;;;;;4.45;0.73;;;;;;;-5.96;77.24;99656.69;5040816;28;20048;-57
2021/12/25 05:10:37;;;;;;;1.73;0.80;;;;;;;-6.00;77.48;99661.66;5054759;28;20483;-56
2021/12/25 05:13:03;;;;;;;2.00;0.80;;;;;;;-6.01;77.80;99658.25;5036073;28;20029;-57
2021/12/25 05:15:28;;;;;;;6.47;1.50;;;;;;;-5.91;77.62;99661.94;5035152;28;20033;-56
2021/12/25 05:17:54;;;;;;;3.53;1.23;;;;;;;-5.86;77.66;99662.97;5034818;28;20034;-56
2021/12/25 05:20:19;;;;;;;5.00;1.48;;;;;;;-5.86;77.54;99670.66;5034849;28;20037;-55
2021/12/25 05:22:45;;;;;;;4.03;1.08;;;;;;;-5.88;77.88;99667.16;5034746;28;20535;-57
2021/12/25 05:25:11;;;;;;;1.60;0.60;;;;;;;-5.85;77.58;99668.94;5034818;28;20124;-57
2021/12/25 05:27:37;;;;;;;3.13;0.98;;;;;;;-5.91;78.03;99669.59;5036823;28;20034;-54
2021/12/25 05:30:04;;;;;;;1.90;0.75;;;;;;;-5.83;77.41;99669.84;5037300;28;20124;-56
2021/12/25 05:32:29;;;;;;;3.25;0.70;;;;;;;-5.83;77.68;99673.28;5046044;28;20049;-57
2021/12/25 05:34:55;;;;;;;2.22;0.80;;;;;;;-5.91;77.84;99668.75;5024839;28;20035;-55
2021/12/25 05:37:20;;;;;;;1.42;0.60;;;;;;;-5.87;78.16;99675.69;5054214;28;20064;-53
2021/12/25 05:39:50;;;;;;;1.75;0.55;;;;;;;-5.86;78.05;99685.13;5038024;28;20059;-56
2021/12/25 05:42:20;;;;;;;2.85;0.60;;;;;;;-5.81;78.32;99691.25;5034229;28;20072;-56
2021/12/25 05:44:46;;;;;;;1.40;0.75;;;;;;;-5.88;78.60;99681.63;5039153;28;20469;-55
2021/12/25 05:47:12;;;;;;;3.05;0.70;;;;;;;-5.78;78.25;99688.81;5037866;28;20032;-56
2021/12/25 05:49:38;;;;;;;1.15;0.60;;;;;;;-5.74;78.28;99682.97;5034575;28;20037;-56
2021/12/25 05:52:04;;;;;;;2.00;0.93;;;;;;;-5.84;78.56;99694.56;5034948;28;20086;-57
2021/12/25 05:54:29;;;;;;;2.55;0.80;;;;;;;-5.81;78.40;99697.25;5035902;28;20472;-56
2021/12/25 05:56:55;;;;;;;2.55;0.80;;;;;;;-5.80;78.64;99693.00;5033046;28;20047;-55
2021/12/25 05:59:20;;;;;;;2.50;0.80;;;;;;;-5.86;78.62;99695.38;5034397;28;20392;-56
2021/12/25 06:01:46;;;;;;;1.95;1.00;;;;;;;-5.90;78.95;99689.28;5035083;28;20045;-56
2021/12/25 06:04:11;;;;;;;2.15;0.93;;;;;;;-5.83;78.79;99698.00;5033634;28;20037;-56
2021/12/25 06:06:36;;;;;;;5.13;1.02;;;;;;;-5.81;78.60;99694.69;5042784;28;20111;-56
2021/12/25 06:09:03;;;;;;;2.70;1.05;;;;;;;-5.79;78.62;99703.25;5039592;28;20061;-53
2021/12/25 06:11:31;;;;;;;2.10;0.60;;;;;;;-5.79;78.86;99707.53;5034221;28;20040;-56
2021/12/25 06:14:06;;;;;;;2.25;1.00;;;;;;;-5.81;78.86;99706.63;5033654;28;20037;-54
2021/12/25 06:16:31;;;;;;;2.42;0.82;;;;;;;-5.80;78.92;99703.22;5034169;28;20037;-53
2021/12/25 06:18:57;;;;;;;1.85;0.95;;;;;;;-5.85;79.32;99705.63;5037173;28;20029;-55
2021/12/25 06:21:22;;;;;;;3.33;0.70;;;;;;;-5.78;79.06;99706.72;5035567;28;20469;-53
2021/12/25 06:23:48;;;;;;;1.83;0.80;;;;;;;-5.80;78.98;99714.31;5033736;28;20029;-54
2021/12/25 06:26:13;;;;;;;1.52;0.75;;;;;;;-5.84;79.27;99712.50;5033570;28;20044;-55
2021/12/25 06:28:38;;;;;;;2.97;1.17;;;;;;;-5.75;78.98;99723.00;5035438;28;20068;-51
2021/12/25 06:31:04;;;;;;;3.35;0.70;;;;;;;-5.76;79.03;99726.41;5032013;28;20045;-55
2021/12/25 06:33:29;;;;;;;1.42;0.90;;;;;;;-5.76;78.87;99735.78;5033608;28;20115;-57
2021/12/25 06:35:55;;;;;;;2.90;0.90;;;;;;;-5.76;79.21;99723.84;5052713;28;20131;-56
2021/12/25 06:38:20;;;;;;;2.65;1.00;;;;;;;-5.75;79.04;99725.56;5052828;28;20056;-55
2021/12/25 06:40:45;;;;;;;2.65;1.00;;;;;;;-5.72;78.97;99728.25;5035203;28;20048;-56
2021/12/25 06:43:11;;;;;;;2.20;0.90;;;;;;;-5.80;79.31;99729.69;5033051;28;20025;-56
2021/12/25 06:45:36;;;;;;;1.77;0.80;;;;;;;-5.72;79.24;99729.94;5033611;28;20087;-55
2021/12/25 06:48:02;;;;;;;2.40;1.10;;;;;;;-5.71;79.23;99729.09;5032962;28;20120;-57
2021/12/25 06:50:27;;;;;;;2.65;1.30;;;;;;;-5.74;79.21;99734.16;5046283;28;20036;-55
2021/12/25 06:52:53;;;;;;;5.43;1.40;;;;;;;-5.78;79.50;99730.63;5036727;28;20397;-56
2021/12/25 06:55:18;;;;;;;2.83;1.52;;;;;;;-5.74;79.29;99740.13;5033562;28;20037;-54
2021/12/25 06:57:55;;;;;;;3.80;1.70;;;;;;;-5.70;79.33;99744.53;5033367;28;20096;-55
2021/12/25 07:00:21;;;;;;;3.67;1.77;;;;;;;-5.67;79.25;99740.31;5035302;28;20037;-55
2021/12/25 07:02:47;;;;;;;2.80;1.52;;;;;;;-5.68;79.15;99738.59;5033019;28;20477;-55
2021/12/25 07:05:12;;;;;;;6.55;2.78;;;;;;;-5.65;79.59;99743.81;5033514;28;20116;-55
2021/12/25 07:07:38;;;;;;;4.05;1.55;;;;;;;-5.59;79.42;99747.44;5041301;28;20065;-54
2021/12/25 07:10:05;;;;;;;3.08;1.17;;;;;;;-5.60;79.48;99757.63;5036632;28;20037;-56
2021/12/25 07:12:36;;;;;;;3.15;1.30;;;;;;;-5.57;79.15;99745.81;5037503;28;20474;-57
2021/12/25 07:15:03;;;;;;;2.35;0.77;;;;;;;-5.45;78.24;99760.69;5039160;28;20485;-55
2021/12/25 07:17:28;;;;;;;3.55;1.08;;;;;;;-5.50;78.62;99749.44;5048583;28;20033;-55
2021/12/25 07:19:54;;;;;;;2.70;1.35;;;;;;;-5.39;78.53;99750.63;5037421;28;20041;-56
2021/12/25 07:22:19;;;;;;;3.78;1.05;;;;;;;-5.33;78.16;99753.41;5046280;28;20037;-56
2021/12/25 07:24:44;;;;;;;1.38;0.85;;;;;;;-5.21;77.98;99747.78;5040630;28;20037;-57
2021/12/25 07:27:10;;;;;;;1.23;0.70;;;;;;;-5.20;77.69;99745.28;5042012;28;20044;-54
2021/12/25 07:29:37;;;;;;;2.83;1.05;;;;;;;-5.16;77.55;99745.38;5035102;28;20160;-53
2021/12/25 07:32:03;;;;;;;2.72;1.10;;;;;;;-5.07;77.29;99761.03;5034505;28;20053;-52
2021/12/25 07:34:28;;;;;;;2.55;1.10;;;;;;;-5.08;77.04;99764.41;5034877;28;20538;-55
2021/12/25 07:36:54;;;;;;;2.20;1.10;;;;;;;-5.02;76.69;99764.63;5034866;28;20033;-55
2021/12/25 07:39:19;;;;;;;2.33;0.80;;;;;;;-4.96;76.30;99764.78;5034747;28;20079;-55
2021/12/25 07:41:44;;;;;;;2.85;1.10;;;;;;;-4.82;76.26;99760.97;5046754;28;20041;-55
2021/12/25 07:44:10;;;;;;;2.03;0.85;;;;;;;-4.71;75.46;99754.47;5056169;28;20485;-54
2021/12/25 07:46:35;;;;;;;2.38;1.20;;;;;;;-4.66;75.23;99758.84;5052492;28;20047;-55
2021/12/25 07:49:01;;;;;;;3.33;1.30;;;;;;;-4.57;74.75;99741.16;5050210;28;20029;-53
2021/12/25 07:51:26;;;;;;;3.40;1.00;;;;;;;-4.42;74.22;99751.88;5044719;28;20507;-53
2021/12/25 07:53:52;;;;;;;2.15;1.15;;;;;;;-4.34;74.09;99759.78;5040933;28;20037;-55
2021/12/25 07:56:17;;;;;;;3.05;1.60;;;;;;;-4.25;73.77;99755.75;5038651;28;20515;-54
2021/12/25 07:58:43;;;;;;;3.13;1.30;;;;;;;-4.18;73.67;99748.25;5050156;28;20068;-53
2021/12/25 08:01:10;;;;;;;2.70;1.20;;;;;;;-4.23;73.88;99754.13;5037445;28;20033;-54
2021/12/25 08:03:36;;;;;;;2.95;1.40;;;;;;;-4.27;73.29;99765.13;5045948;28;20032;-56
2021/12/25 08:06:03;;;;;;;3.90;1.60;;;;;;;-4.31;73.52;99768.44;5052047;28;20408;-54
2021/12/25 08:08:28;;;;;;;2.10;1.27;;;;;;;-4.39;73.41;99772.44;5056347;28;20082;-54
2021/12/25 08:10:55;;;;;;;2.78;1.50;;;;;;;-4.39;73.77;99777.56;5056301;28;20033;-55
2021/12/25 08:13:21;;;;;;;3.33;1.60;;;;;;;-4.22;73.61;99784.06;5056084;28;20037;-55
2021/12/25 08:15:47;;;;;;;4.35;1.50;;;;;;;-4.24;73.08;99780.56;5054901;28;20079;-55
2021/12/25 08:18:13;;;;;;;2.85;1.60;;;;;;;-4.07;73.17;99783.63;5055972;28;20045;-54
2021/12/25 08:20:38;;;;;;;3.47;1.58;;;;;;;-3.96;72.39;99787.34;5055008;28;20036;-55
2021/12/25 08:23:04;;;;;;;3.30;1.80;;;;;;;-3.82;71.88;99789.44;5055919;28;20384;-55
2021/12/25 08:25:30;;;;;;;3.58;1.65;;;;;;;-3.76;71.72;99798.13;5055815;28;20064;-53
2021/12/25 08:27:55;;;;;;;4.15;2.30;;;;;;;-3.80;71.55;99796.31;5055835;28;20033;-55
2021/12/25 08:30:22;;;;;;;2.75;1.50;;;;;;;-3.67;71.34;99797.53;5055636;28;20080;-54
2021/12/25 08:32:50;;;;;;;8.02;2.45;;;;;;;-3.63;70.90;99798.47;5043129;28;20034;-54
2021/12/25 08:35:16;;;;;;;3.38;1.58;;;;;;;-3.59;70.64;99798.59;5035548;28;20041;-55
2021/12/25 08:37:43;;;;;;;3.92;1.60;;;;;;;-3.47;70.16;99811.75;5046833;28;20090;-56
2021/12/25 08:40:10;;;;;;;4.03;1.70;;;;;;;-3.37;69.96;99805.13;5036086;28;20029;-56
2021/12/25 08:42:36;;;;;;;3.40;2.10;;;;;;;-3.16;69.67;99815.06;5035441;28;20117;-52
2021/12/25 08:47:33;;;;;;;4.38;2.03;;;;;;;-2.99;68.94;99816.38;5035158;28;20045;-52
2021/12/25 08:50:01;;;;;;;5.80;1.90;;;;;;;-2.83;68.64;99821.84;5038787;28;20037;-55
2021/12/25 08:52:26;;;;;;;3.58;1.48;;;;;;;-2.78;68.38;99823.69;5039556;28;20041;-55
2021/12/25 08:54:52;;;;;;;3.33;1.80;;;;;;;-2.80;68.28;99834.78;5036956;28;20025;-56
2021/12/25 08:57:20;;;;;;;3.65;2.08;;;;;;;-2.61;68.07;99842.06;5048381;28;20041;-54
2021/12/25 08:59:46;;;;;;;5.38;2.20;;;;;;;-2.51;67.82;99831.19;5042907;28;20033;-52
2021/12/25 09:02:15;;;;;;;4.70;2.42;;;;;;;-2.24;67.32;99837.72;5034988;28;20354;-53
2021/12/25 09:04:43;;;;;;;5.10;2.28;;;;;;;-1.87;66.77;99836.78;5035185;28;20033;-55
2021/12/25 09:07:09;;;;;;;5.63;2.53;;;;;;;-1.66;65.90;99838.03;5035505;28;20040;-54
2021/12/25 09:09:35;;;;;;;4.43;2.13;;;;;;;-1.57;65.69;99831.34;5037300;28;20064;-56
2021/12/25 09:12:01;;;;;;;4.90;1.98;;;;;;;-1.51;65.41;99838.34;5034912;28;20041;-55
2021/12/25 09:14:26;;;;;;;5.32;2.47;;;;;;;-1.42;65.02;99843.63;5036099;28;20029;-55
2021/12/25 09:16:52;;;;;;;8.85;3.60;;;;;;;-1.43;64.79;99841.91;5050920;28;20067;-55
2021/12/25 09:19:18;;;;;;;8.50;4.85;;;;;;;-1.17;64.36;99836.34;5052247;28;20530;-54
2021/12/25 09:21:44;;;;;;;11.68;6.32;;;;;;;-0.92;64.14;99829.84;5038977;28;20030;-55
2021/12/25 09:24:09;;;;;;;8.90;5.05;;;;;;;-0.70;63.76;99825.91;5047073;28;20381;-55
2021/12/25 09:26:35;;;;;;;7.38;3.35;;;;;;;-0.61;62.71;99831.19;5035720;28;20033;-54
2021/12/25 09:29:00;;;;;;;6.80;4.00;;;;;;;-0.66;63.25;99833.72;5051105;28;20036;-57
2021/12/25 09:31:27;;;;;;;8.27;4.00;;;;;;;-0.59;63.04;99829.53;5033985;28;20442;-55
2021/12/25 09:33:52;;;;;;;9.10;4.57;;;;;;;-0.73;63.13;99843.91;5034262;28;20426;-55
2021/12/25 09:36:19;;;;;;;6.60;3.40;;;;;;;-1.02;63.48;99841.75;5034466;28;20076;-55
2021/12/25 09:38:45;;;;;;;5.13;3.25;;;;;;;-1.24;64.48;99845.66;5039314;28;20435;-55
2021/12/25 09:41:11;;;;;;;5.20;2.90;;;;;;;-1.32;63.95;99849.81;5044180;28;20469;-53
2021/12/25 09:43:39;;;;;;;7.00;3.35;;;;;;;-1.30;64.22;99849.00;5044037;28;20044;-55
2021/12/25 09:46:04;;;;;;;5.88;3.03;;;;;;;-1.34;63.90;99854.09;5045649;28;20127;-55
2021/12/25 09:48:30;;;;;;;4.90;2.83;;;;;;;-1.34;63.84;99852.38;5040237;28;20112;-54
2021/12/25 09:50:56;;;;;;;11.45;5.95;;;;;;;-1.43;63.62;99846.19;5039735;28;20322;-56
2021/12/25 09:53:21;;;;;;;6.50;2.70;;;;;;;-1.47;63.96;99855.59;5046963;28;20037;-54
2021/12/25 09:55:47;;;;;;;5.82;2.20;;;;;;;-1.14;63.59;99862.16;5040710;28;20041;-53
2021/12/25 09:58:13;;;;;;;3.72;1.80;;;;;;;-1.12;63.00;99848.44;5035582;28;20041;-55
2021/12/25 10:00:44;;;;;;;4.47;1.60;;;;;;;-0.82;62.27;99850.66;5034118;28;20107;-55
2021/12/25 10:03:09;;;;;;;2.85;1.48;;;;;;;-0.79;61.82;99842.97;5034092;28;20476;-55
2021/12/25 10:05:39;;;;;;;3.45;1.58;;;;;;;-0.63;61.52;99844.09;5034053;28;20060;-55
2021/12/25 10:08:07;;;;;;;3.88;1.70;;;;;;;-0.53;61.15;99840.78;5033911;28;20457;-55
2021/12/25 10:10:45;;;;;;;3.15;1.40;;;;;;;-0.50;61.03;99845.13;5034033;28;20032;-53
2021/12/25 10:13:27;;;;;;;3.75;1.40;;;;;;;-0.27;60.80;99848.91;5042252;28;20068;-53
2021/12/25 10:16:16;;;;;;;2.88;1.38;;;;;;;0.12;60.11;99836.44;5052516;28;20555;-54
2021/12/25 10:18:41;;;;;;;2.83;1.00;;;;;;;0.16;58.38;99853.72;5043427;28;20231;-55
2021/12/25 10:21:21;;;;;;;2.13;1.02;;;;;;;0.20;57.61;99840.00;5038953;28;20130;-54
2021/12/25 10:24:18;;;;;;;4.53;1.20;;;;;;;-0.04;57.72;99843.16;5033802;28;20041;-53
2021/12/25 10:26:46;;;;;;;3.58;1.20;;;;;;;-0.27;58.39;99841.16;5033819;28;20037;-52
2021/12/25 10:29:16;;;;;;;2.63;0.98;;;;;;;-0.29;58.54;99835.09;5032109;28;20129;-53
2021/12/25 10:31:41;;;;;;;2.70;0.98;;;;;;;-0.04;58.25;99837.97;5042316;28;20045;-53
2021/12/25 10:34:19;;;;;;;3.65;1.08;;;;;;;-0.10;58.01;99835.34;5053644;28;20032;-54
2021/12/25 10:36:45;;;;;;;1.75;0.90;;;;;;;-0.07;58.10;99837.97;5053400;28;20036;-55
2021/12/25 10:39:12;;;;;;;4.13;1.40;;;;;;;-0.05;58.00;99847.44;5053334;28;20024;-53
2021/12/25 10:41:41;;;;;;;5.28;1.10;;;;;;;0.05;57.70;99829.50;5053263;28;20040;-52
2021/12/25 10:44:23;;;;;;;3.35;1.05;;;;;;;0.22;57.03;99833.13;5051263;28;20074;-54
2021/12/25 10:46:59;;;;;;;4.88;1.23;;;;;;;0.57;55.87;99850.75;5053788;28;20032;-56
2021/12/25 10:49:38;;;;;;;2.40;1.10;;;;;;;0.53;55.92;99844.69;5053439;28;20029;-55
2021/12/25 10:52:27;;;;;;;2.58;1.00;;;;;;;0.68;56.00;99855.19;5053334;28;20041;-55
2021/12/25 10:55:02;;;;;;;2.03;1.10;;;;;;;0.45;55.84;99846.31;5053359;28;20071;-54
2021/12/25 10:58:03;;;;;;;4.28;1.10;;;;;;;0.53;55.56;99838.66;5053383;28;20032;-54
2021/12/25 11:00:33;;;;;;;2.60;1.17;;;;;;;0.65;56.79;99847.38;5053106;28;20033;-54
2021/12/25 11:03:04;;;;;;;2.35;0.82;;;;;;;0.57;57.11;99841.28;5052944;28;20082;-54
2021/12/25 11:05:35;;;;;;;1.80;1.00;;;;;;;0.59;56.30;99849.03;5053145;28;20412;-56
2021/12/25 11:08:20;;;;;;;2.20;1.08;;;;;;;0.55;56.16;99849.84;5053189;28;20033;-54
2021/12/25 11:10:47;;;;;;;1.95;0.85;;;;;;;0.78;55.43;99857.84;5053216;28;20033;-54
2021/12/25 11:13:18;;;;;;;2.70;1.10;;;;;;;1.10;55.36;99852.97;5052956;28;20543;-54
2021/12/25 11:15:43;;;;;;;3.35;1.30;;;;;;;1.22;54.37;99853.91;5053359;28;20072;-52
2021/12/25 11:18:10;;;;;;;2.83;1.25;;;;;;;1.61;53.88;99849.00;5052935;28;20057;-54
2021/12/25 11:20:38;;;;;;;4.80;1.17;;;;;;;1.62;52.85;99854.19;5053112;28;20061;-55
2021/12/25 11:23:07;;;;;;;3.40;1.35;;;;;;;1.44;53.49;99861.84;5052806;28;20419;-56
2021/12/25 11:25:35;;;;;;;4.57;1.33;;;;;;;0.98;54.38;99864.06;5052964;28;20460;-54
2021/12/25 11:28:04;;;;;;;2.45;1.05;;;;;;;0.92;55.37;99866.63;5052697;28;20079;-53
2021/12/25 11:30:32;;;;;;;3.72;1.23;;;;;;;1.18;55.37;99870.28;5052867;28;20554;-57
2021/12/25 11:32:58;;;;;;;2.30;1.05;;;;;;;0.89;55.47;99864.00;5052944;28;20052;-56
2021/12/25 11:35:24;;;;;;;2.45;1.25;;;;;;;0.77;56.64;99853.53;5053049;28;20449;-55
2021/12/25 11:37:52;;;;;;;4.00;1.20;;;;;;;0.63;57.03;99851.66;5053096;28;20112;-54
2021/12/25 11:40:21;;;;;;;2.80;1.10;;;;;;;0.51;58.52;99861.88;5053019;28;20044;-54
2021/12/25 11:42:49;;;;;;;2.58;0.98;;;;;;;0.71;58.57;99854.31;5052748;28;20021;-55
2021/12/25 11:45:23;;;;;;;4.15;1.25;;;;;;;0.43;62.47;99873.84;5052688;28;20041;-54
2021/12/25 11:47:51;;;;;;;3.55;1.30;;;;;;;0.18;66.03;99872.72;5052519;28;20029;-54
2021/12/25 11:50:31;;;;;;;5.15;1.30;;;;;;;0.43;66.80;99863.50;5052099;28;20032;-54
2021/12/25 11:53:41;;;;;;;3.33;1.55;;;;;;;0.56;66.84;99873.16;5052560;28;20041;-53
2021/12/25 11:58:41;;;;;;;4.45;2.15;;;;;;;0.24;65.83;99860.75;5056365;28;20056;-57
2021/12/25 12:01:19;;;;;;;5.25;2.17;;;;;;;0.18;67.20;99857.22;5056021;28;20112;-54
2021/12/25 12:03:52;;;;;;;3.13;1.30;;;;;;;0.03;67.04;99859.59;5056559;28;20033;-54
2021/12/25 12:06:18;;;;;;;4.68;1.52;;;;;;;-0.54;66.93;99861.41;5056435;28;20037;-55
2021/12/25 12:08:52;;;;;;;6.90;1.80;;;;;;;-0.59;67.59;99852.75;5056209;28;20102;-56
2021/12/25 12:11:23;;;;;;;4.32;1.13;;;;;;;-0.72;67.78;99858.53;5056047;28;20033;-56
2021/12/25 12:14:22;;;;;;;7.55;2.22;;;;;;;-0.85;68.67;99858.34;5054620;28;20396;-54
2021/12/25 12:17:19;;;;;;;4.15;1.58;;;;;;;-1.15;69.15;99874.19;5055984;28;20092;-53
2021/12/25 12:19:51;;;;;;;3.47;1.30;;;;;;;-1.20;69.79;99869.78;5055351;28;20072;-56
2021/12/25 12:22:23;;;;;;;3.15;1.40;;;;;;;-1.38;70.16;99880.66;5055490;28;20033;-55
2021/12/25 12:25:25;;;;;;;3.53;1.63;;;;;;;-1.34;70.65;99862.69;5055887;28;20495;-55
2021/12/25 12:27:59;;;;;;;4.65;1.40;;;;;;;-1.41;70.97;99876.28;5056040;28;20021;-57
2021/12/25 12:30:30;;;;;;;2.25;1.20;;;;;;;-1.50;71.84;99884.72;5055501;28;20537;-55
2021/12/25 12:33:00;;;;;;;3.70;1.38;;;;;;;-1.55;72.61;99886.34;5055909;28;20075;-54
2021/12/25 12:35:31;;;;;;;2.88;0.93;;;;;;;-1.52;73.48;99888.09;5055808;28;20036;-57
2021/12/25 12:41:25;;;;;;;4.10;1.08;;;;;;;-1.73;75.43;99893.72;5056398;28;20033;-55
2021/12/25 12:44:00;;;;;;;2.05;1.00;;;;;;;-1.63;75.08;99902.50;5055677;28;20120;-55
2021/12/25 12:46:47;;;;;;;2.67;1.15;;;;;;;-1.68;76.26;99902.38;5055458;28;20037;-55
2021/12/25 12:49:16;;;;;;;1.80;0.88;;;;;;;-1.77;76.00;99905.66;5055137;28;20454;-53
2021/12/25 12:51:42;;;;;;;2.90;1.02;;;;;;;-1.74;76.67;99912.59;5055345;28;20033;-56